createdAt,value
2023-05-16T00:04:05.264Z,4.60
2023-05-16T00:09:10.949Z,5.60
2023-05-16T00:14:16.376Z,5.40
2023-05-16T00:19:21.838Z,5.30
2023-05-16T00:24:27.456Z,5.60
2023-05-16T00:29:32.956Z,7.00
2023-05-16T00:34:38.562Z,6.00
2023-05-16T00:39:44.247Z,6.00
2023-05-16T00:44:49.757Z,5.60
2023-05-16T00:49:55.399Z,6.40
2023-05-16T00:55:01.474Z,7.60
2023-05-16T01:00:12.581Z,9.70
2023-05-16T01:05:18.415Z,7.00
2023-05-16T01:10:25.590Z,8.90
2023-05-16T01:15:37.215Z,6.30
2023-05-16T01:20:49.508Z,6.90
2023-05-16T01:26:14.295Z,6.90
2023-05-16T01:31:20.865Z,7.50
2023-05-16T01:36:31.398Z,7.20
2023-05-16T01:41:53.651Z,9.10
2023-05-16T01:47:02.825Z,9.50
2023-05-16T01:52:13.490Z,9.70
2023-05-16T01:57:20.260Z,8.20
2023-05-16T02:02:25.929Z,8.90
2023-05-16T02:07:32.225Z,10.70
2023-05-16T02:12:38.162Z,6.30
2023-05-16T02:17:44.292Z,8.20
2023-05-16T02:22:50.175Z,8.20
2023-05-16T02:27:56.523Z,10.60
2023-05-16T02:33:02.799Z,7.30
2023-05-16T02:38:09.768Z,12.10
2023-05-16T02:43:15.985Z,9.40
2023-05-16T02:48:21.489Z,7.40
2023-05-16T02:53:27.107Z,7.70
2023-05-16T02:58:33.075Z,7.20
2023-05-16T03:03:39.693Z,8.00
2023-05-16T03:08:45.284Z,6.10
2023-05-16T03:13:50.821Z,7.20
2023-05-16T03:18:57.143Z,7.90
2023-05-16T03:24:04.515Z,7.50
2023-05-16T03:29:11.165Z,7.50
2023-05-16T03:34:16.667Z,8.70
2023-05-16T03:39:22.811Z,7.10
2023-05-16T03:44:28.319Z,6.90
2023-05-16T03:49:33.899Z,7.50
2023-05-16T03:54:39.467Z,6.70
2023-05-16T03:59:45.128Z,6.90
2023-05-16T04:04:50.752Z,7.30
2023-05-16T04:09:58.669Z,7.90
2023-05-16T04:15:06.814Z,7.50
2023-05-16T04:20:13.474Z,7.70
2023-05-16T04:25:19.638Z,8.00
2023-05-16T04:30:25.448Z,5.00
2023-05-16T04:35:31.215Z,5.00
2023-05-16T04:40:36.850Z,5.40
2023-05-16T04:45:43.033Z,4.50
2023-05-16T04:50:48.590Z,4.50
2023-05-16T04:55:54.249Z,4.30
2023-05-16T05:01:01.804Z,7.30
2023-05-16T05:06:08.510Z,4.30
2023-05-16T05:11:14.174Z,6.60
2023-05-16T05:16:19.962Z,3.40
2023-05-16T05:21:25.505Z,3.50
2023-05-16T05:26:31.244Z,3.70
2023-05-16T05:31:37.439Z,6.10
2023-05-16T05:36:47.215Z,4.30
2023-05-16T05:41:55.278Z,6.20
2023-05-16T05:47:00.821Z,8.10
2023-05-16T05:52:06.840Z,6.10
2023-05-16T05:57:12.338Z,5.40
2023-05-16T06:02:17.798Z,5.30
2023-05-16T06:07:23.731Z,6.20
2023-05-16T06:12:29.168Z,6.50
2023-05-16T06:17:34.754Z,7.60
2023-05-16T06:22:40.758Z,9.40
2023-05-16T06:27:46.249Z,6.30
2023-05-16T06:32:51.911Z,6.50
2023-05-16T06:37:57.530Z,9.70
2023-05-16T06:43:03.126Z,10.30
2023-05-16T06:48:09.711Z,7.00
2023-05-16T06:53:15.756Z,6.20
2023-05-16T06:58:21.761Z,7.10
2023-05-16T07:03:27.417Z,8.10
2023-05-16T07:08:36.011Z,5.60
2023-05-16T07:13:41.376Z,8.40
2023-05-16T07:18:47.028Z,11.00
2023-05-16T07:23:52.672Z,11.30
2023-05-16T07:28:59.071Z,8.40
2023-05-16T07:34:04.813Z,10.80
2023-05-16T07:39:10.708Z,6.30
2023-05-16T07:44:16.443Z,5.40
2023-05-16T07:49:22.095Z,4.60
2023-05-16T07:54:27.485Z,6.90
2023-05-16T07:59:33.518Z,6.70
2023-05-16T08:04:39.506Z,7.40
2023-05-16T08:09:44.903Z,3.80
2023-05-16T08:14:50.803Z,4.40
2023-05-16T08:19:56.732Z,4.50
2023-05-16T08:25:02.412Z,3.90
2023-05-16T08:30:11.416Z,5.40
2023-05-16T08:35:17.314Z,11.00
2023-05-16T08:40:25.552Z,4.40
2023-05-16T08:45:31.997Z,4.80
2023-05-16T08:50:37.690Z,4.50
2023-05-16T08:55:44.357Z,4.40
2023-05-16T09:05:40.791Z,3.00
2023-05-16T09:10:46.251Z,4.20
2023-05-16T09:16:12.920Z,3.20
2023-05-16T09:21:19.528Z,4.10
2023-05-16T09:26:26.310Z,2.90
2023-05-16T09:31:38.100Z,5.00
2023-05-16T09:36:44.990Z,5.50
2023-05-16T09:41:53.522Z,4.10
2023-05-16T09:47:00.576Z,2.90
2023-05-16T09:52:07.800Z,3.30
2023-05-16T09:57:13.456Z,2.50
2023-05-16T10:02:20.640Z,3.50
2023-05-16T10:07:27.129Z,6.40
2023-05-16T10:12:33.097Z,2.40
2023-05-16T10:17:43.278Z,3.80
2023-05-16T10:22:50.411Z,5.30
2023-05-16T10:27:56.364Z,5.10
2023-05-16T10:33:04.229Z,12.30
2023-05-16T10:38:13.353Z,4.90
2023-05-16T10:43:27.030Z,2.80
2023-05-16T10:48:34.517Z,2.90
2023-05-16T10:53:39.911Z,3.70
2023-05-16T10:58:47.600Z,2.50
2023-05-16T11:04:10.185Z,5.70
2023-05-16T11:09:28.383Z,2.20
2023-05-16T11:14:47.721Z,2.50
2023-05-16T11:19:57.550Z,2.10
2023-05-16T11:25:05.804Z,2.70
2023-05-16T11:30:17.104Z,2.50
2023-05-16T11:35:22.692Z,1.60
2023-05-16T11:40:28.283Z,1.90
2023-05-16T11:45:34.370Z,3.10
2023-05-16T11:50:39.848Z,5.20
2023-05-16T11:55:50.102Z,3.10
2023-05-16T12:00:58.609Z,2.40
2023-05-16T12:06:04.913Z,2.50
2023-05-16T12:11:12.203Z,3.80
2023-05-16T12:16:18.602Z,5.20
2023-05-16T12:21:24.389Z,2.70
2023-05-16T12:26:31.282Z,1.90
2023-05-16T12:31:40.587Z,2.70
2023-05-16T12:36:50.545Z,3.10
2023-05-16T12:41:56.338Z,2.20
2023-05-16T12:47:02.378Z,6.60
2023-05-16T12:52:19.000Z,2.80
2023-05-16T12:57:24.639Z,2.20
2023-05-16T13:02:30.241Z,2.20
2023-05-16T13:07:36.348Z,2.50
2023-05-16T13:12:42.665Z,4.50
2023-05-16T13:17:49.009Z,4.40
2023-05-16T13:22:55.835Z,5.20
2023-05-16T13:28:01.674Z,4.30
2023-05-16T13:33:08.041Z,2.50
2023-05-16T13:38:15.400Z,2.90
2023-05-16T13:43:20.963Z,2.70
2023-05-16T13:48:26.613Z,1.90
2023-05-16T13:53:32.292Z,2.20
2023-05-16T13:58:48.938Z,4.30
2023-05-16T14:04:03.763Z,2.50
2023-05-16T14:09:09.711Z,5.40
2023-05-16T14:14:15.363Z,1.90
2023-05-16T14:19:21.243Z,4.40
2023-05-16T14:24:26.973Z,2.70
2023-05-16T14:29:32.742Z,2.00
2023-05-16T14:34:38.636Z,2.40
2023-05-16T14:39:46.581Z,3.10
2023-05-16T14:44:52.089Z,1.60
2023-05-16T14:49:57.876Z,2.80
2023-05-16T14:55:03.482Z,2.00
2023-05-16T15:00:11.844Z,2.90
2023-05-16T15:05:55.829Z,2.00
2023-05-16T15:11:01.922Z,2.60
2023-05-16T15:16:08.296Z,1.70
2023-05-16T15:21:13.701Z,4.00
2023-05-16T15:26:19.671Z,7.00
2023-05-16T15:31:25.539Z,1.90
2023-05-16T15:36:30.987Z,2.00
2023-05-16T15:42:00.688Z,1.40
2023-05-16T15:47:01.877Z,2.90
2023-05-16T15:52:08.449Z,7.60
2023-05-16T15:57:13.793Z,2.50
2023-05-16T16:02:19.210Z,2.00
2023-05-16T16:07:26.013Z,2.80
2023-05-16T16:12:31.911Z,2.60
2023-05-16T16:17:37.677Z,3.00
2023-05-16T16:22:43.611Z,2.30
2023-05-16T16:27:49.107Z,2.30
2023-05-16T16:32:54.543Z,2.80
2023-05-16T16:38:06.874Z,4.20
2023-05-16T16:43:13.914Z,6.90
2023-05-16T16:48:19.481Z,3.20
2023-05-16T16:53:24.976Z,5.80
2023-05-16T16:58:30.696Z,3.40
2023-05-16T17:03:36.378Z,7.10
2023-05-16T17:08:41.941Z,4.30
2023-05-16T17:13:47.384Z,3.00
2023-05-16T17:18:55.073Z,6.20
2023-05-16T17:24:00.721Z,4.90
2023-05-16T17:29:06.368Z,6.10
2023-05-16T17:34:11.779Z,3.70
2023-05-16T17:39:17.450Z,4.60
2023-05-16T17:44:23.070Z,3.40
2023-05-16T17:49:28.628Z,4.50
2023-05-16T17:54:34.177Z,4.00
2023-05-16T17:59:40.617Z,5.50
2023-05-16T18:04:51.623Z,4.80
2023-05-16T18:10:17.234Z,3.50
2023-05-16T18:15:23.642Z,5.80
2023-05-16T18:20:29.881Z,9.00
2023-05-16T18:25:35.423Z,8.10
2023-05-16T18:30:41.070Z,10.90
2023-05-16T18:35:46.629Z,9.80
2023-05-16T18:40:52.315Z,15.20
2023-05-16T18:45:57.879Z,15.80
2023-05-16T18:51:03.699Z,18.00
2023-05-16T18:56:09.567Z,17.60
2023-05-16T19:01:15.554Z,18.20
2023-05-16T19:06:21.238Z,18.30
2023-05-16T19:11:27.060Z,21.80
2023-05-16T19:16:32.963Z,37.50
2023-05-16T19:21:39.207Z,32.90
2023-05-16T19:26:44.799Z,25.10
2023-05-16T19:31:50.371Z,25.60
2023-05-16T19:36:56.224Z,25.90
2023-05-16T19:42:07.034Z,26.70
2023-05-16T19:47:17.490Z,24.10
2023-05-16T19:52:24.327Z,24.40
2023-05-16T19:57:29.946Z,23.10
2023-05-16T20:02:35.671Z,23.00
2023-05-16T20:07:41.585Z,20.30
2023-05-16T20:12:47.297Z,25.50
2023-05-16T20:17:52.846Z,18.00
2023-05-16T20:22:58.260Z,18.80
2023-05-16T20:28:04.103Z,18.50
2023-05-16T20:33:09.700Z,17.20
2023-05-16T20:38:15.221Z,13.70
2023-05-16T20:43:20.701Z,15.10
2023-05-16T20:48:26.475Z,13.50
2023-05-16T20:53:32.104Z,11.90
2023-05-16T20:58:41.153Z,13.00
2023-05-16T21:03:46.735Z,12.20
2023-05-16T21:08:52.142Z,13.70
2023-05-16T21:13:57.677Z,10.90
2023-05-16T21:19:04.437Z,13.60
2023-05-16T21:24:10.244Z,11.80
2023-05-16T21:29:15.607Z,13.60
2023-05-16T21:34:21.112Z,14.00
2023-05-16T21:39:26.479Z,14.20
2023-05-16T21:44:32.030Z,12.00
2023-05-16T21:49:37.406Z,11.20
2023-05-16T21:54:42.986Z,14.20
2023-05-16T21:59:50.568Z,15.70
2023-05-16T22:04:56.095Z,15.30
2023-05-16T22:10:02.504Z,20.10
2023-05-16T22:15:09.524Z,15.30
2023-05-16T22:20:15.026Z,17.10
2023-05-16T22:25:20.832Z,17.50
2023-05-16T22:30:26.364Z,19.20
2023-05-16T22:35:31.915Z,17.00
2023-05-16T22:40:37.862Z,21.50
2023-05-16T22:45:43.628Z,22.60
2023-05-16T22:50:49.215Z,25.40
2023-05-16T22:55:54.945Z,23.00
2023-05-16T23:01:01.509Z,26.20
2023-05-16T23:06:07.510Z,32.80
2023-05-16T23:11:12.857Z,32.90
2023-05-16T23:16:18.305Z,34.40
2023-05-16T23:21:23.691Z,33.40
2023-05-16T23:26:29.165Z,30.60
2023-05-16T23:31:34.670Z,25.10
2023-05-16T23:36:40.434Z,20.30
2023-05-16T23:41:45.859Z,20.60
2023-05-16T23:46:51.473Z,21.60
2023-05-16T23:51:58.270Z,23.80
2023-05-16T23:57:04.155Z,25.40
